Mc Bee, South Carolina
Current Conditions -  °F | °C
As of 1:55 PM on Friday 31 Oct 2014 (Local Time) from KUDG Reporting Station
Few Clouds Few Clouds  
Wind Chill: 64°   Ceiling: Unl
Heat Index: 64°   Visibility: 10mi
Dew Point: 43°   Wind: 0mph
Humidity: 45%   Direction: NA
Pressure: 29.85"   Gusts: NA
Location:  34.5053°N, 80.249°W
Report Text: KUDG 311755Z AUTO 00000KT 10SM FEW044 18/06 A2985 RMK AO1 10190 20060 57034
Loading
Personal Weather Stations






























Interactive Weather Map
Tropical Storm Tracking
New forecast layout! Learn more

10-Day Weather Forecast

Advertisements
Track Severe Weather on mobile